createdAt,value
2022-08-31T00:02:37.556Z,102596.28
2022-08-31T00:05:23.507Z,102600.75
2022-08-31T00:08:08.809Z,102592.88
2022-08-31T00:10:55.601Z,102591.09
2022-08-31T00:13:42.487Z,102591.97
2022-08-31T00:16:30.292Z,102593.72
2022-08-31T00:19:16.373Z,102599.06
2022-08-31T00:22:01.959Z,102587.56
2022-08-31T00:24:47.669Z,102588.50
2022-08-31T00:27:33.397Z,102590.28
2022-08-31T00:30:19.087Z,102591.25
2022-08-31T00:33:05.804Z,102590.34
2022-08-31T00:35:51.544Z,102583.44
2022-08-31T00:38:43.062Z,102591.28
2022-08-31T00:41:30.339Z,102593.81
2022-08-31T00:44:15.778Z,102601.78
2022-08-31T00:47:01.091Z,102600.16
2022-08-31T00:49:51.423Z,102604.53
2022-08-31T00:52:45.761Z,102591.41
2022-08-31T00:55:37.218Z,102593.19
2022-08-31T00:58:23.042Z,102587.13
2022-08-31T01:01:10.419Z,102580.91
2022-08-31T01:03:56.826Z,102580.84
2022-08-31T01:06:43.339Z,102577.22
2022-08-31T01:09:33.176Z,102573.56
2022-08-31T01:12:19.167Z,102568.16
2022-08-31T01:15:07.485Z,102566.34
2022-08-31T01:17:55.435Z,102580.34
2022-08-31T01:20:49.099Z,102582.19
2022-08-31T01:23:43.053Z,102586.75
2022-08-31T01:26:31.097Z,102598.09
2022-08-31T01:29:17.392Z,102603.22
2022-08-31T01:32:05.429Z,102596.19
2022-08-31T01:34:51.081Z,102597.03
2022-08-31T01:37:36.581Z,102590.94
2022-08-31T01:40:30.249Z,102590.88
2022-08-31T01:43:16.546Z,102584.50
2022-08-31T01:46:04.871Z,102586.03
2022-08-31T01:48:56.367Z,102585.09
2022-08-31T01:51:42.652Z,102578.06
2022-08-31T01:54:27.848Z,102579.19
2022-08-31T01:57:15.777Z,102578.13
2022-08-31T02:00:34.848Z,102584.13
2022-08-31T02:03:22.086Z,102578.81
2022-08-31T02:06:09.450Z,102578.72
2022-08-31T02:08:55.142Z,102578.41
2022-08-31T02:11:41.003Z,102573.38
2022-08-31T02:14:26.324Z,102584.81
2022-08-31T02:17:12.000Z,102577.09
2022-08-31T02:19:58.447Z,102577.78
2022-08-31T02:22:44.587Z,102573.31
2022-08-31T02:25:31.675Z,102571.34
2022-08-31T02:28:19.582Z,102574.13
2022-08-31T02:31:05.123Z,102575.84
2022-08-31T02:34:01.199Z,102573.94
2022-08-31T02:36:46.552Z,102571.88
2022-08-31T02:39:32.674Z,102574.63
2022-08-31T02:42:18.483Z,102572.00
2022-08-31T02:45:06.850Z,102576.88
2022-08-31T02:47:52.430Z,102576.00
2022-08-31T02:50:48.330Z,102573.50
2022-08-31T02:53:34.435Z,102572.69
2022-08-31T02:56:20.189Z,102574.34
2022-08-31T02:59:06.876Z,102576.47
2022-08-31T03:01:54.335Z,102572.91
2022-08-31T03:04:41.584Z,102571.25
2022-08-31T03:07:27.331Z,102569.16
2022-08-31T03:10:14.886Z,102566.44
2022-08-31T03:13:02.192Z,102550.09
2022-08-31T03:15:48.284Z,102555.34
2022-08-31T03:18:35.780Z,102556.44
2022-08-31T03:21:21.305Z,102558.66
2022-08-31T03:24:07.013Z,102556.31
2022-08-31T03:26:52.631Z,102561.03
2022-08-31T03:29:38.036Z,102557.53
2022-08-31T03:32:33.121Z,102562.97
2022-08-31T03:35:19.655Z,102559.16
2022-08-31T03:38:05.600Z,102557.34
2022-08-31T03:40:51.380Z,102563.38
2022-08-31T03:43:37.431Z,102569.78
2022-08-31T03:46:24.135Z,102578.66
2022-08-31T03:49:12.586Z,102574.31
2022-08-31T03:52:06.043Z,102582.00
2022-08-31T03:55:03.960Z,102576.69
2022-08-31T03:57:49.443Z,102587.81
2022-08-31T04:00:35.909Z,102584.63
2022-08-31T04:03:29.514Z,102581.56
2022-08-31T04:06:40.617Z,102582.47
2022-08-31T04:09:46.127Z,102592.31
2022-08-31T04:12:57.592Z,102584.88
2022-08-31T04:16:12.298Z,102578.41
2022-08-31T04:19:17.664Z,102580.22
2022-08-31T04:22:17.238Z,102585.75
2022-08-31T04:25:22.195Z,102579.69
2022-08-31T04:28:09.258Z,102577.78
2022-08-31T04:30:55.935Z,102572.34
2022-08-31T04:33:42.629Z,102577.66
2022-08-31T04:36:29.769Z,102565.47
2022-08-31T04:39:15.450Z,102561.19
2022-08-31T04:42:02.848Z,102564.75
2022-08-31T04:44:52.137Z,102563.13
2022-08-31T04:47:37.407Z,102559.78
2022-08-31T04:50:22.829Z,102558.25
2022-08-31T04:53:27.243Z,102559.88
2022-08-31T04:56:19.510Z,102561.72
2022-08-31T04:59:08.745Z,102563.34
2022-08-31T05:02:01.267Z,102568.63
2022-08-31T05:04:52.670Z,102573.97
2022-08-31T05:07:38.571Z,102568.75
2022-08-31T05:10:24.818Z,102569.59
2022-08-31T05:13:11.371Z,102567.78
2022-08-31T05:15:57.378Z,102566.84
2022-08-31T05:18:44.035Z,102570.41
2022-08-31T05:21:33.368Z,102564.25
2022-08-31T05:24:22.721Z,102573.88
2022-08-31T05:27:09.859Z,102560.78
2022-08-31T05:29:55.112Z,102573.00
2022-08-31T05:32:58.794Z,102567.72
2022-08-31T05:35:45.101Z,102568.59
2022-08-31T05:38:30.892Z,102574.72
2022-08-31T05:41:17.438Z,102572.97
2022-08-31T05:44:04.824Z,102575.56
2022-08-31T05:47:01.301Z,102573.00
2022-08-31T05:49:50.315Z,102572.16
2022-08-31T05:52:38.903Z,102559.84
2022-08-31T05:55:24.491Z,102562.50
2022-08-31T05:58:10.452Z,102553.75
2022-08-31T06:00:56.032Z,102563.28
2022-08-31T06:04:17.828Z,102557.94
2022-08-31T06:07:03.661Z,102561.31
2022-08-31T06:09:55.432Z,102551.50
2022-08-31T06:12:43.511Z,102563.78
2022-08-31T06:15:29.288Z,102560.47
2022-08-31T06:18:14.871Z,102570.13
2022-08-31T06:21:10.034Z,102563.13
2022-08-31T06:23:59.516Z,102564.97
2022-08-31T06:26:56.805Z,102570.28
2022-08-31T06:29:46.520Z,102569.47
2022-08-31T06:32:33.210Z,102577.38
2022-08-31T06:35:21.530Z,102573.03
2022-08-31T06:38:32.918Z,102574.78
2022-08-31T06:41:39.108Z,102579.03
2022-08-31T06:44:45.397Z,102574.75
2022-08-31T06:47:36.441Z,102581.91
2022-08-31T06:50:23.903Z,102583.66
2022-08-31T06:53:12.804Z,102589.00
2022-08-31T06:56:26.398Z,102587.38
2022-08-31T06:59:30.443Z,102588.41
2022-08-31T07:02:34.884Z,102589.38
2022-08-31T07:05:24.665Z,102586.72
2022-08-31T07:08:11.819Z,102581.59
2022-08-31T07:10:57.637Z,102592.09
2022-08-31T07:13:43.272Z,102588.84
2022-08-31T07:16:29.308Z,102587.34
2022-08-31T07:19:15.925Z,102592.69
2022-08-31T07:22:05.845Z,102591.97
2022-08-31T07:24:51.284Z,102593.81
2022-08-31T07:27:37.183Z,102587.72
2022-08-31T07:30:23.516Z,102587.00
2022-08-31T07:33:09.574Z,102594.06
2022-08-31T07:35:59.704Z,102589.81
2022-08-31T07:39:33.157Z,102592.50
2022-08-31T07:42:25.585Z,102588.22
2022-08-31T07:45:22.668Z,102588.31
2022-08-31T07:48:09.888Z,102597.91
2022-08-31T07:51:30.711Z,102599.78
2022-08-31T07:54:32.381Z,102603.38
2022-08-31T07:57:27.380Z,102606.94
2022-08-31T08:00:18.247Z,102601.78
2022-08-31T08:03:13.091Z,102594.81
2022-08-31T08:06:18.050Z,102595.78
2022-08-31T08:09:29.375Z,102595.88
2022-08-31T08:12:22.463Z,102604.69
2022-08-31T08:15:33.908Z,102599.44
2022-08-31T08:18:40.579Z,102599.47
2022-08-31T08:21:27.735Z,102596.06
2022-08-31T08:24:15.774Z,102597.81
2022-08-31T08:27:20.735Z,102598.72
2022-08-31T08:30:18.340Z,102591.84
2022-08-31T08:33:04.071Z,102595.44
2022-08-31T08:36:01.019Z,102594.66
2022-08-31T08:38:51.267Z,102600.84
2022-08-31T08:41:40.328Z,102600.91
2022-08-31T08:44:30.806Z,102601.84
2022-08-31T08:47:26.057Z,102600.16
2022-08-31T08:50:19.174Z,102600.31
2022-08-31T08:53:10.788Z,102601.22
2022-08-31T08:56:17.238Z,102596.84
2022-08-31T08:59:11.497Z,102593.44
2022-08-31T09:02:05.141Z,102596.09
2022-08-31T09:05:06.329Z,102595.25
2022-08-31T09:08:32.346Z,102597.97
2022-08-31T09:11:55.356Z,102592.00
2022-08-31T09:14:59.931Z,102593.88
2022-08-31T09:17:45.561Z,102602.69
2022-08-31T09:20:33.801Z,102600.16
2022-08-31T09:23:19.749Z,102604.63
2022-08-31T09:26:08.469Z,102606.44
2022-08-31T09:29:32.768Z,102599.56
2022-08-31T09:32:26.239Z,102600.59
2022-08-31T09:35:40.388Z,102604.13
2022-08-31T09:38:28.248Z,102599.69
2022-08-31T09:41:38.569Z,102599.66
2022-08-31T09:44:34.665Z,102591.63
2022-08-31T09:47:51.205Z,102591.56
2022-08-31T09:50:45.364Z,102588.13
2022-08-31T09:53:59.454Z,102590.00
2022-08-31T09:56:56.767Z,102586.63
2022-08-31T09:59:51.735Z,102587.53
2022-08-31T10:02:38.213Z,102590.19
2022-08-31T10:05:40.773Z,102590.19
2022-08-31T10:08:28.282Z,102572.66
2022-08-31T10:11:24.204Z,102587.53
2022-08-31T10:14:22.864Z,102578.69
2022-08-31T10:17:16.108Z,102580.41
2022-08-31T10:20:15.856Z,102583.03
2022-08-31T10:23:27.365Z,102575.00
2022-08-31T10:26:31.728Z,102560.00
2022-08-31T10:29:31.575Z,102568.75
2022-08-31T10:32:36.610Z,102566.00
2022-08-31T10:35:49.594Z,102571.28
2022-08-31T10:38:41.641Z,102560.81
2022-08-31T10:41:33.281Z,102559.09
2022-08-31T10:44:32.743Z,102557.41
2022-08-31T10:47:33.074Z,102553.91
2022-08-31T10:50:36.017Z,102546.88
2022-08-31T10:54:03.260Z,102544.25
2022-08-31T10:57:00.626Z,102541.72
2022-08-31T11:00:45.917Z,102550.50
2022-08-31T11:03:52.946Z,102546.16
2022-08-31T11:06:41.928Z,102535.63
2022-08-31T11:09:42.273Z,102533.06
2022-08-31T11:12:42.585Z,102535.75
2022-08-31T11:15:44.125Z,102539.34
2022-08-31T11:18:57.326Z,102529.66
2022-08-31T11:22:12.157Z,102539.38
2022-08-31T11:25:09.405Z,102532.31
2022-08-31T11:28:08.294Z,102531.44
2022-08-31T11:30:54.224Z,102540.22
2022-08-31T11:34:14.256Z,102539.38
2022-08-31T11:37:01.137Z,102534.09
2022-08-31T11:39:48.625Z,102537.56
2022-08-31T11:42:34.395Z,102526.13
2022-08-31T11:45:33.090Z,102533.13
2022-08-31T11:48:51.425Z,102528.66
2022-08-31T11:51:42.962Z,102525.09
2022-08-31T11:54:28.086Z,102522.34
2022-08-31T11:57:21.209Z,102525.75
2022-08-31T12:00:20.414Z,102529.84
2022-08-31T12:03:09.683Z,102526.00
2022-08-31T12:05:58.196Z,102518.09
2022-08-31T12:08:53.209Z,102519.66
2022-08-31T12:12:12.425Z,102514.19
2022-08-31T12:15:49.051Z,102508.13
2022-08-31T12:19:05.483Z,102512.44
2022-08-31T12:22:19.346Z,102495.19
2022-08-31T12:25:16.807Z,102495.72
2022-08-31T12:28:05.455Z,102489.94
2022-08-31T12:30:54.290Z,102488.84
2022-08-31T12:33:54.299Z,102493.88
2022-08-31T12:36:40.835Z,102482.03
2022-08-31T12:39:28.920Z,102479.34
2022-08-31T12:42:14.509Z,102481.56
2022-08-31T12:45:00.024Z,102480.38
2022-08-31T12:48:27.369Z,102478.34
2022-08-31T12:51:37.596Z,102463.47
2022-08-31T12:54:42.069Z,102465.03
2022-08-31T12:57:49.834Z,102485.63
2022-08-31T13:00:39.505Z,102470.09
2022-08-31T13:03:29.367Z,102461.84
2022-08-31T13:06:23.370Z,102471.94
2022-08-31T13:09:42.518Z,102473.50
2022-08-31T13:12:28.158Z,102464.63
2022-08-31T13:15:46.351Z,102468.09
2022-08-31T13:18:32.254Z,102468.97
2022-08-31T13:21:22.290Z,102475.28
2022-08-31T13:24:10.851Z,102474.38
2022-08-31T13:27:25.643Z,102466.09
2022-08-31T13:30:19.043Z,102474.38
2022-08-31T13:33:28.965Z,102473.41
2022-08-31T13:36:57.753Z,102476.72
2022-08-31T13:39:46.652Z,102473.84
2022-08-31T13:42:42.934Z,102465.66
2022-08-31T13:45:30.558Z,102464.19
2022-08-31T13:48:26.808Z,102455.44
2022-08-31T13:51:20.074Z,102454.72
2022-08-31T13:54:13.073Z,102451.91
2022-08-31T13:57:22.871Z,102452.28
2022-08-31T14:00:27.250Z,102453.56
2022-08-31T14:03:33.866Z,102448.31
2022-08-31T14:06:26.478Z,102436.19
2022-08-31T14:09:17.141Z,102442.47
2022-08-31T14:12:05.290Z,102443.72
2022-08-31T14:14:50.771Z,102442.63
2022-08-31T14:18:23.995Z,102425.97
2022-08-31T14:21:22.859Z,102440.97
2022-08-31T14:24:12.324Z,102439.25
2022-08-31T14:27:00.491Z,102421.00
2022-08-31T14:29:46.193Z,102419.31
2022-08-31T14:32:33.367Z,102419.34
2022-08-31T14:35:18.942Z,102417.25
2022-08-31T14:38:04.267Z,102413.28
2022-08-31T14:40:50.061Z,102412.06
2022-08-31T14:43:35.971Z,102414.53
2022-08-31T14:46:28.340Z,102411.25
2022-08-31T14:49:14.248Z,102415.16
2022-08-31T14:52:04.727Z,102412.72
2022-08-31T14:54:50.429Z,102413.75
2022-08-31T14:57:36.458Z,102411.69
2022-08-31T15:00:23.540Z,102416.91
2022-08-31T15:03:12.049Z,102410.94
2022-08-31T15:06:00.252Z,102410.75
2022-08-31T15:08:45.658Z,102405.41
2022-08-31T15:11:37.051Z,102407.72
2022-08-31T15:14:22.568Z,102407.66
2022-08-31T15:17:19.300Z,102405.09
2022-08-31T15:20:07.568Z,102401.31
2022-08-31T15:22:53.317Z,102392.91
2022-08-31T15:25:39.360Z,102388.03
2022-08-31T15:28:24.893Z,102385.06
2022-08-31T15:31:23.684Z,102389.53
2022-08-31T15:34:10.191Z,102382.88
2022-08-31T15:36:59.637Z,102384.06
2022-08-31T15:39:49.096Z,102385.69
2022-08-31T15:42:38.390Z,102378.50
2022-08-31T15:45:25.883Z,102372.03
2022-08-31T15:48:29.866Z,102375.47
2022-08-31T15:51:23.689Z,102376.69
2022-08-31T15:54:21.601Z,102374.22
2022-08-31T15:57:11.363Z,102368.78
2022-08-31T15:59:56.949Z,102376.69
2022-08-31T16:02:43.765Z,102371.41
2022-08-31T16:05:39.381Z,102369.59
2022-08-31T16:08:28.738Z,102371.50
2022-08-31T16:11:14.717Z,102368.38
2022-08-31T16:14:01.088Z,102367.69
2022-08-31T16:16:48.752Z,102360.81
2022-08-31T16:19:36.379Z,102359.63
2022-08-31T16:22:22.689Z,102359.41
2022-08-31T16:25:17.794Z,102363.94
2022-08-31T16:28:06.301Z,102358.59
2022-08-31T16:30:52.181Z,102364.75
2022-08-31T16:33:41.985Z,102357.84
2022-08-31T16:36:28.660Z,102359.16
2022-08-31T16:39:14.396Z,102359.00
2022-08-31T16:42:00.305Z,102354.03
2022-08-31T16:44:47.925Z,102357.13
2022-08-31T16:47:33.496Z,102365.56
2022-08-31T16:50:19.407Z,102350.69
2022-08-31T16:53:05.164Z,102358.69
2022-08-31T16:55:51.058Z,102347.34
2022-08-31T16:58:51.698Z,102348.22
2022-08-31T17:01:45.661Z,102357.00
2022-08-31T17:07:36.981Z,102352.63
2022-08-31T17:10:23.118Z,102363.84
2022-08-31T17:13:08.919Z,102359.38
2022-08-31T17:15:54.323Z,102355.78
2022-08-31T17:18:42.465Z,102348.75
2022-08-31T17:21:30.070Z,102345.19
2022-08-31T17:24:18.943Z,102349.25
2022-08-31T17:27:09.622Z,102348.41
2022-08-31T17:30:01.079Z,102349.84
2022-08-31T17:32:47.229Z,102349.81
2022-08-31T17:35:32.393Z,102351.47
2022-08-31T17:38:18.428Z,102344.41
2022-08-31T17:41:06.435Z,102342.66
2022-08-31T17:43:53.593Z,102351.53
2022-08-31T17:46:39.237Z,102353.41
2022-08-31T17:49:26.927Z,102344.97
2022-08-31T17:52:13.466Z,102349.75
2022-08-31T17:55:00.456Z,102354.22
2022-08-31T17:57:45.790Z,102351.81
2022-08-31T18:00:33.205Z,102355.41
2022-08-31T18:03:18.637Z,102358.91
2022-08-31T18:06:04.895Z,102359.69
2022-08-31T18:08:50.009Z,102351.91
2022-08-31T18:11:35.631Z,102357.31
2022-08-31T18:14:27.734Z,102359.13
2022-08-31T18:17:16.423Z,102357.44
2022-08-31T18:20:03.282Z,102360.94
2022-08-31T18:22:52.216Z,102359.22
2022-08-31T18:25:40.880Z,102355.69
2022-08-31T18:28:26.277Z,102357.47
2022-08-31T18:31:13.751Z,102364.47
2022-08-31T18:34:01.866Z,102368.88
2022-08-31T18:36:48.510Z,102365.34
2022-08-31T18:39:59.025Z,102367.97
2022-08-31T18:43:04.571Z,102371.38
2022-08-31T18:45:51.587Z,102376.63
2022-08-31T18:48:37.612Z,102368.69
2022-08-31T18:51:23.571Z,102370.41
2022-08-31T18:54:09.094Z,102367.72
2022-08-31T18:56:54.686Z,102375.56
2022-08-31T18:59:40.001Z,102379.91
2022-08-31T19:02:25.631Z,102381.63
2022-08-31T19:05:13.750Z,102378.94
2022-08-31T19:08:00.630Z,102375.38
2022-08-31T19:10:46.956Z,102375.34
2022-08-31T19:13:35.338Z,102372.59
2022-08-31T19:16:24.006Z,102376.03
2022-08-31T19:19:11.215Z,102387.38
2022-08-31T19:21:58.044Z,102379.44
2022-08-31T19:24:43.827Z,102389.00
2022-08-31T19:27:29.195Z,102384.56
2022-08-31T19:30:15.116Z,102387.13
2022-08-31T19:33:06.318Z,102386.19
2022-08-31T19:36:01.350Z,102389.63
2022-08-31T19:38:50.947Z,102386.94
2022-08-31T19:41:36.227Z,102384.28
2022-08-31T19:44:22.362Z,102390.38
2022-08-31T19:47:24.479Z,102386.75
2022-08-31T19:50:15.092Z,102391.91
2022-08-31T19:53:01.642Z,102386.66
2022-08-31T19:55:52.627Z,102391.00
2022-08-31T19:58:38.392Z,102397.09
2022-08-31T20:01:28.184Z,102395.34
2022-08-31T20:04:17.215Z,102405.00
2022-08-31T20:07:08.444Z,102398.84
2022-08-31T20:09:54.731Z,102397.03
2022-08-31T20:12:42.577Z,102404.88
2022-08-31T20:15:28.191Z,102395.16
2022-08-31T20:18:13.655Z,102398.59
2022-08-31T20:21:01.164Z,102403.88
2022-08-31T20:23:48.872Z,102395.00
2022-08-31T20:26:47.344Z,102384.38
2022-08-31T20:29:38.825Z,102390.47
2022-08-31T20:32:25.995Z,102393.97
2022-08-31T20:35:14.980Z,102399.22
2022-08-31T20:38:00.681Z,102399.09
2022-08-31T20:40:52.271Z,102398.31
2022-08-31T20:43:38.384Z,102403.50
2022-08-31T20:46:42.618Z,102399.84
2022-08-31T20:49:31.101Z,102395.56
2022-08-31T20:52:18.021Z,102399.03
2022-08-31T20:55:05.503Z,102401.59
2022-08-31T20:57:51.319Z,102404.28
2022-08-31T21:00:37.726Z,102396.22
2022-08-31T21:03:23.287Z,102385.56
2022-08-31T21:06:11.809Z,102385.59
2022-08-31T21:08:57.349Z,102390.50
2022-08-31T21:11:43.868Z,102386.09
2022-08-31T21:14:29.590Z,102391.16
2022-08-31T21:17:16.026Z,102383.13
2022-08-31T21:20:01.297Z,102383.00
2022-08-31T21:22:46.663Z,102385.09
2022-08-31T21:25:32.069Z,102395.66
2022-08-31T21:28:18.655Z,102402.84
2022-08-31T21:31:06.431Z,102401.13
2022-08-31T21:34:02.542Z,102401.19
2022-08-31T21:36:48.305Z,102400.44
2022-08-31T21:39:34.166Z,102406.63
2022-08-31T21:42:19.379Z,102403.06
2022-08-31T21:45:05.228Z,102414.41
2022-08-31T21:47:50.584Z,102407.53
2022-08-31T21:50:36.030Z,102407.59
2022-08-31T21:53:21.760Z,102409.44
2022-08-31T21:56:07.870Z,102405.16
2022-08-31T21:58:53.946Z,102398.25
2022-08-31T22:01:40.105Z,102401.88
2022-08-31T22:04:30.318Z,102401.03
2022-08-31T22:07:16.022Z,102400.16
2022-08-31T22:10:02.831Z,102400.22
2022-08-31T22:12:48.533Z,102395.00
2022-08-31T22:15:36.426Z,102392.44
2022-08-31T22:21:33.228Z,102384.66
2022-08-31T22:24:26.938Z,102376.81
2022-08-31T22:27:13.419Z,102385.63
2022-08-31T22:29:58.842Z,102386.50
2022-08-31T22:32:47.062Z,102380.38
2022-08-31T22:35:39.064Z,102378.63
2022-08-31T22:38:24.928Z,102379.53
2022-08-31T22:41:12.900Z,102373.44
2022-08-31T22:43:59.142Z,102372.56
2022-08-31T22:46:45.321Z,102358.56
2022-08-31T22:49:31.038Z,102360.28
2022-08-31T22:52:17.426Z,102346.28
2022-08-31T22:55:03.624Z,102348.94
2022-08-31T22:57:49.386Z,102355.03
2022-08-31T23:00:35.741Z,102347.16
2022-08-31T23:03:22.482Z,102347.16
2022-08-31T23:06:08.214Z,102344.59
2022-08-31T23:08:55.930Z,102348.16
2022-08-31T23:11:41.825Z,102340.31
2022-08-31T23:14:28.456Z,102333.34
2022-08-31T23:17:13.877Z,102339.50
2022-08-31T23:20:02.967Z,102334.25
2022-08-31T23:22:49.614Z,102328.16
2022-08-31T23:25:35.551Z,102333.38
2022-08-31T23:28:20.943Z,102318.47
2022-08-31T23:31:07.856Z,102319.31
2022-08-31T23:33:54.493Z,102315.81
2022-08-31T23:36:42.611Z,102309.66
2022-08-31T23:39:29.610Z,102314.00
2022-08-31T23:42:16.749Z,102310.47
2022-08-31T23:45:02.358Z,102308.72
2022-08-31T23:47:47.952Z,102312.22
2022-08-31T23:50:33.111Z,102300.78
2022-08-31T23:53:18.609Z,102312.13
2022-08-31T23:56:11.660Z,102296.34
2022-08-31T23:58:58.144Z,102307.69
